createdAt,value
2023-01-28T00:01:42.739Z,97102.84
2023-01-28T00:04:10.953Z,97098.00
2023-01-28T00:06:39.212Z,97096.91
2023-01-28T00:09:07.424Z,97051.81
2023-01-28T00:11:35.654Z,97025.06
2023-01-28T00:14:04.683Z,97024.94
2023-01-28T00:16:34.276Z,97107.25
2023-01-28T00:19:04.378Z,97104.00
2023-01-28T00:21:32.995Z,97037.44
2023-01-28T00:24:01.294Z,97082.66
2023-01-28T00:26:29.524Z,97065.16
2023-01-28T00:28:57.706Z,97020.59
2023-01-28T00:31:27.707Z,97094.31
2023-01-28T00:33:58.683Z,97061.63
2023-01-28T00:36:28.235Z,97031.78
2023-01-28T00:38:58.877Z,97085.06
2023-01-28T00:41:29.369Z,97052.03
2023-01-28T00:44:00.112Z,97073.78
2023-01-28T00:46:28.776Z,97090.00
2023-01-28T00:48:58.331Z,97014.38
2023-01-28T00:51:26.550Z,97052.81
2023-01-28T00:53:54.803Z,97086.00
2023-01-28T00:56:22.985Z,97119.16
2023-01-28T00:58:51.241Z,96975.25
2023-01-28T01:01:22.715Z,97079.91
2023-01-28T01:06:56.093Z,97095.16
2023-01-28T01:09:24.959Z,97096.97
2023-01-28T01:11:53.142Z,97104.19
2023-01-28T01:14:21.320Z,97060.47
2023-01-28T01:16:49.603Z,97077.97
2023-01-28T01:19:21.910Z,97090.50
2023-01-28T01:21:50.945Z,97041.97
2023-01-28T01:24:19.286Z,97068.13
2023-01-28T01:26:47.491Z,97138.47
2023-01-28T01:29:15.680Z,97093.50
2023-01-28T01:31:45.145Z,97032.84
2023-01-28T01:34:13.400Z,97108.84
2023-01-28T01:36:44.118Z,97086.06
2023-01-28T01:39:13.951Z,97082.31
2023-01-28T01:41:42.347Z,97109.50
2023-01-28T01:44:54.227Z,97089.91
2023-01-28T01:47:24.863Z,97083.81
2023-01-28T01:49:53.482Z,97098.31
2023-01-28T01:52:29.607Z,97141.38
2023-01-28T01:55:00.829Z,97095.31
2023-01-28T01:57:33.940Z,97054.78
2023-01-28T02:00:06.743Z,97124.53
2023-01-28T02:02:48.202Z,97053.53
2023-01-28T02:05:20.420Z,97121.19
2023-01-28T02:07:55.304Z,97001.47
2023-01-28T02:10:24.295Z,97048.38
2023-01-28T02:12:57.981Z,97139.69
2023-01-28T02:15:29.783Z,97101.00
2023-01-28T02:17:58.625Z,97083.97
2023-01-28T02:20:46.244Z,97130.34
2023-01-28T02:23:39.500Z,97108.44
2023-01-28T02:26:50.534Z,97157.38
2023-01-28T02:29:27.259Z,97051.94
2023-01-28T02:32:11.509Z,97078.56
2023-01-28T02:34:44.570Z,97057.78
2023-01-28T02:37:17.735Z,97059.44
2023-01-28T02:39:50.703Z,97111.00
2023-01-28T02:42:24.510Z,97122.94
2023-01-28T02:44:54.036Z,97122.19
2023-01-28T02:47:39.657Z,97061.22
2023-01-28T02:50:13.074Z,97187.44
2023-01-28T02:53:15.093Z,97110.00
2023-01-28T02:55:52.834Z,97058.19
2023-01-28T02:58:30.630Z,97072.75
2023-01-28T03:01:10.606Z,97105.16
2023-01-28T03:03:52.173Z,97118.53
2023-01-28T03:06:25.453Z,97120.75
2023-01-28T03:09:16.123Z,97115.78
2023-01-28T03:12:06.451Z,97090.31
2023-01-28T03:14:54.859Z,97093.31
2023-01-28T03:17:47.170Z,97089.22
2023-01-28T03:20:34.715Z,97120.69
2023-01-28T03:23:28.842Z,97096.91
2023-01-28T03:26:18.327Z,97122.34
2023-01-28T03:29:08.594Z,97054.78
2023-01-28T03:31:55.662Z,97118.03
2023-01-28T03:34:42.773Z,97103.56
2023-01-28T03:37:14.766Z,97121.69
2023-01-28T03:39:48.787Z,97128.53
2023-01-28T03:42:18.770Z,97107.69
2023-01-28T03:45:14.407Z,97135.72
2023-01-28T03:47:44.173Z,97154.97
2023-01-28T03:50:14.997Z,97104.00
2023-01-28T03:53:14.952Z,97108.81
2023-01-28T03:55:50.734Z,97129.84
2023-01-28T03:58:20.109Z,97159.56
2023-01-28T04:00:48.708Z,97044.22
2023-01-28T04:03:19.639Z,97074.22
2023-01-28T04:06:15.818Z,97147.06
2023-01-28T04:09:05.993Z,97133.44
2023-01-28T04:11:53.314Z,97093.56
2023-01-28T04:14:29.563Z,97141.88
2023-01-28T04:17:17.256Z,97157.22
2023-01-28T04:19:47.395Z,97163.75
2023-01-28T04:22:18.595Z,97101.75
2023-01-28T04:24:46.955Z,97174.47
2023-01-28T04:27:17.313Z,97114.53
2023-01-28T04:29:45.508Z,97139.69
2023-01-28T04:32:29.342Z,97178.97
2023-01-28T04:35:09.040Z,97172.25
2023-01-28T04:37:50.583Z,97162.56
2023-01-28T04:40:33.213Z,97247.31
2023-01-28T04:43:25.567Z,97150.22
2023-01-28T04:46:17.645Z,97050.38
2023-01-28T04:49:11.158Z,97102.00
2023-01-28T04:51:48.236Z,97148.38
2023-01-28T04:54:51.339Z,97173.06
2023-01-28T04:57:19.623Z,97138.84
2023-01-28T04:59:47.893Z,97187.81
2023-01-28T05:02:17.206Z,97176.16
2023-01-28T05:04:56.969Z,97166.56
2023-01-28T05:07:39.766Z,97164.72
2023-01-28T05:10:11.118Z,97160.41
2023-01-28T05:12:39.645Z,97195.25
2023-01-28T05:15:10.608Z,97123.28
2023-01-28T05:17:38.981Z,97172.78
2023-01-28T05:20:08.956Z,97150.66
2023-01-28T05:22:37.264Z,97188.06
2023-01-28T05:25:19.427Z,97191.19
2023-01-28T05:27:52.362Z,97138.69
2023-01-28T05:30:21.540Z,97184.44
2023-01-28T05:32:50.220Z,97176.25
2023-01-28T05:35:22.959Z,97135.03
2023-01-28T05:37:51.183Z,97190.41
2023-01-28T05:40:21.851Z,97153.78
2023-01-28T05:42:50.528Z,97194.59
2023-01-28T05:45:36.092Z,97182.84
2023-01-28T05:48:11.904Z,97205.28
2023-01-28T05:50:49.361Z,97142.03
2023-01-28T05:53:32.688Z,97171.41
2023-01-28T05:56:02.587Z,97185.09
2023-01-28T05:58:32.907Z,97178.97
2023-01-28T06:01:04.489Z,97173.66
2023-01-28T06:03:40.955Z,97151.78
2023-01-28T06:06:09.235Z,97166.81
2023-01-28T06:08:38.307Z,97213.47
2023-01-28T06:11:08.020Z,97180.75
2023-01-28T06:13:37.710Z,97204.09
2023-01-28T06:16:26.232Z,97237.97
2023-01-28T06:19:26.461Z,97185.09
2023-01-28T06:21:54.703Z,97188.75
2023-01-28T06:24:26.085Z,97161.38
2023-01-28T06:26:55.650Z,97225.19
2023-01-28T06:29:24.166Z,97183.31
2023-01-28T06:31:52.429Z,97228.53
2023-01-28T06:34:20.908Z,97185.56
2023-01-28T06:36:50.937Z,97187.97
2023-01-28T06:39:21.148Z,97263.25
2023-01-28T06:41:49.477Z,97170.06
2023-01-28T06:44:20.899Z,97245.63
2023-01-28T06:46:49.065Z,97247.16
2023-01-28T06:49:17.301Z,97240.63
2023-01-28T06:51:45.436Z,97232.16
2023-01-28T06:54:13.608Z,97232.88
2023-01-28T06:56:42.066Z,97222.94
2023-01-28T06:59:10.319Z,97188.59
2023-01-28T07:01:39.928Z,97313.22
2023-01-28T07:04:24.955Z,97289.19
2023-01-28T07:06:53.547Z,97279.44
2023-01-28T07:09:21.856Z,97289.34
2023-01-28T07:11:50.034Z,97242.75
2023-01-28T07:14:18.215Z,97253.81
2023-01-28T07:16:47.741Z,97222.63
2023-01-28T07:19:15.924Z,97288.22
2023-01-28T07:21:44.119Z,97271.94
2023-01-28T07:24:12.905Z,97274.34
2023-01-28T07:26:41.100Z,97263.84
2023-01-28T07:29:10.520Z,97183.00
2023-01-28T07:31:38.904Z,97275.88
2023-01-28T07:34:09.735Z,97252.41
2023-01-28T07:36:37.886Z,97282.06
2023-01-28T07:39:06.684Z,97320.59
2023-01-28T07:41:35.937Z,97263.97
2023-01-28T07:44:07.443Z,97296.91
2023-01-28T07:46:35.672Z,97290.75
2023-01-28T07:49:03.852Z,97310.44
2023-01-28T07:51:33.581Z,97288.72
2023-01-28T07:54:02.018Z,97280.97
2023-01-28T07:56:32.303Z,97270.03
2023-01-28T07:59:00.470Z,97246.84
2023-01-28T08:01:28.693Z,97264.69
2023-01-28T08:03:56.983Z,97248.88
2023-01-28T08:06:25.199Z,97242.03
2023-01-28T08:08:55.920Z,97243.94
2023-01-28T08:11:25.076Z,97285.59
2023-01-28T08:13:53.245Z,97427.97
2023-01-28T08:16:21.417Z,97294.78
2023-01-28T08:18:49.629Z,97309.53
2023-01-28T08:21:17.802Z,97273.16
2023-01-28T08:23:46.065Z,97318.81
2023-01-28T08:26:15.891Z,97347.88
2023-01-28T08:28:44.133Z,97310.63
2023-01-28T08:31:12.469Z,97311.38
2023-01-28T08:33:40.771Z,97313.63
2023-01-28T08:36:10.004Z,97322.34
2023-01-28T08:38:38.218Z,97328.25
2023-01-28T08:41:07.030Z,97299.78
2023-01-28T08:43:36.583Z,97348.88
2023-01-28T08:46:07.226Z,97314.81
2023-01-28T08:48:35.470Z,97335.03
2023-01-28T08:51:04.368Z,97311.66
2023-01-28T08:53:33.064Z,97335.69
2023-01-28T08:56:01.581Z,97293.22
2023-01-28T08:58:29.808Z,97307.06
2023-01-28T09:00:59.465Z,97267.13
2023-01-28T09:03:29.732Z,97324.50
2023-01-28T09:06:08.436Z,97325.16
2023-01-28T09:08:36.628Z,97301.38
2023-01-28T09:11:04.978Z,97301.22
2023-01-28T09:13:33.236Z,97315.84
2023-01-28T09:16:05.876Z,97344.75
2023-01-28T09:18:34.117Z,97326.50
2023-01-28T09:21:05.959Z,97316.16
2023-01-28T09:23:36.987Z,97358.41
2023-01-28T09:26:06.945Z,97361.78
2023-01-28T09:28:35.257Z,97325.34
2023-01-28T09:31:07.145Z,97261.03
2023-01-28T09:33:36.633Z,97363.44
2023-01-28T09:36:09.470Z,97294.03
2023-01-28T09:38:37.699Z,97343.41
2023-01-28T09:41:27.145Z,97366.94
2023-01-28T09:44:08.299Z,97398.81
2023-01-28T09:46:39.237Z,97353.75
2023-01-28T09:49:20.451Z,97353.75
2023-01-28T09:51:53.650Z,97310.56
2023-01-28T09:54:34.264Z,97368.53
2023-01-28T09:57:07.964Z,97320.16
2023-01-28T09:59:37.232Z,97347.72
2023-01-28T10:02:29.014Z,97359.34
2023-01-28T10:05:08.324Z,97372.78
2023-01-28T10:07:46.575Z,97359.28
2023-01-28T10:10:19.201Z,97354.66
2023-01-28T10:13:08.818Z,97381.06
2023-01-28T10:16:07.379Z,97375.31
2023-01-28T10:18:45.485Z,97373.97
2023-01-28T10:21:21.440Z,97350.91
2023-01-28T10:23:59.714Z,97338.63
2023-01-28T10:26:34.304Z,97350.81
2023-01-28T10:29:13.274Z,97322.66
2023-01-28T10:31:52.349Z,97323.16
2023-01-28T10:34:23.208Z,97313.16
2023-01-28T10:36:51.770Z,97351.91
2023-01-28T10:39:24.708Z,97337.22
2023-01-28T10:41:58.280Z,97322.34
2023-01-28T10:44:35.985Z,97345.06
2023-01-28T10:47:12.065Z,97301.44
2023-01-28T10:49:47.834Z,97354.81
2023-01-28T10:52:18.510Z,97345.22
2023-01-28T10:54:47.011Z,97330.09
2023-01-28T10:57:19.602Z,97333.53
2023-01-28T10:59:50.083Z,97378.75
2023-01-28T11:02:32.485Z,97371.94
2023-01-28T11:05:17.060Z,97329.69
2023-01-28T11:08:15.793Z,97384.00
2023-01-28T11:10:44.992Z,97363.63
2023-01-28T11:13:19.991Z,97322.00
2023-01-28T11:15:50.105Z,97354.81
2023-01-28T11:18:22.557Z,97324.34
2023-01-28T11:20:57.619Z,97354.25
2023-01-28T11:23:28.687Z,97306.63
2023-01-28T11:26:09.243Z,97320.75
2023-01-28T11:28:42.515Z,97332.97
2023-01-28T11:31:14.971Z,97353.44
2023-01-28T11:33:50.441Z,97390.75
2023-01-28T11:36:21.786Z,97371.91
2023-01-28T11:38:55.174Z,97367.13
2023-01-28T11:41:30.515Z,97366.63
2023-01-28T11:44:01.039Z,97350.16
2023-01-28T11:47:03.345Z,97329.78
2023-01-28T11:49:48.907Z,97304.06
2023-01-28T11:52:26.934Z,97380.81
2023-01-28T11:55:10.927Z,97363.94
2023-01-28T11:57:50.653Z,97306.25
2023-01-28T12:00:41.779Z,97341.88
2023-01-28T12:03:52.782Z,97313.69
2023-01-28T12:06:37.417Z,97361.59
2023-01-28T12:09:21.223Z,97327.97
2023-01-28T12:12:13.067Z,97362.13
2023-01-28T12:15:01.426Z,97360.94
2023-01-28T12:17:45.976Z,97336.22
2023-01-28T12:20:24.390Z,97314.06
2023-01-28T12:23:34.260Z,97378.41
2023-01-28T12:26:18.359Z,97362.94
2023-01-28T12:29:04.242Z,97354.00
2023-01-28T12:32:04.968Z,97377.66
2023-01-28T12:34:58.608Z,97353.75
2023-01-28T12:37:38.542Z,97354.00
2023-01-28T12:40:27.375Z,97349.00
2023-01-28T12:43:03.780Z,97200.47
2023-01-28T12:45:40.803Z,97368.97
2023-01-28T12:48:16.366Z,97311.47
2023-01-28T12:50:50.814Z,97194.50
2023-01-28T12:53:29.121Z,97286.00
2023-01-28T12:56:05.635Z,97342.31
2023-01-28T12:58:42.034Z,97331.03
2023-01-28T13:01:15.691Z,97277.84
2023-01-28T13:04:07.612Z,97340.22
2023-01-28T13:06:43.128Z,97355.34
2023-01-28T13:09:20.102Z,97365.84
2023-01-28T13:11:52.058Z,97335.03
2023-01-28T13:14:28.645Z,97296.63
2023-01-28T13:16:56.931Z,97316.81
2023-01-28T13:19:38.008Z,97342.13
2023-01-28T13:22:14.809Z,97349.75
2023-01-28T13:24:43.024Z,97342.56
2023-01-28T13:27:22.091Z,97348.25
2023-01-28T13:30:03.662Z,97349.72
2023-01-28T13:32:35.394Z,97362.09
2023-01-28T13:35:08.430Z,97365.13
2023-01-28T13:37:39.931Z,97350.59
2023-01-28T13:40:25.266Z,97320.59
2023-01-28T13:43:03.143Z,97303.13
2023-01-28T13:45:36.049Z,97353.50
2023-01-28T13:48:23.880Z,97360.84
2023-01-28T13:50:54.575Z,97378.00
2023-01-28T13:53:36.223Z,97365.28
2023-01-28T13:56:11.463Z,97394.53
2023-01-28T13:59:13.247Z,97376.31
2023-01-28T14:02:15.475Z,97370.97
2023-01-28T14:05:21.451Z,97372.63
2023-01-28T14:08:42.250Z,97392.88
2023-01-28T14:11:46.495Z,97368.94
2023-01-28T14:14:44.705Z,97370.38
2023-01-28T14:17:23.551Z,97388.44
2023-01-28T14:19:53.611Z,97393.88
2023-01-28T14:22:22.603Z,97380.16
2023-01-28T14:24:51.460Z,97318.50
2023-01-28T14:27:25.288Z,97391.81
2023-01-28T14:30:08.393Z,97341.22
2023-01-28T14:32:38.099Z,97404.56
2023-01-28T14:35:10.554Z,97417.06
2023-01-28T14:37:39.811Z,97391.34
2023-01-28T14:40:14.876Z,97419.25
2023-01-28T14:42:46.314Z,97422.09
2023-01-28T14:45:40.823Z,97395.09
2023-01-28T14:48:31.069Z,97367.28
2023-01-28T14:51:43.935Z,97409.88
2023-01-28T14:54:31.536Z,97426.00
2023-01-28T14:57:29.924Z,97432.59
2023-01-28T15:00:01.054Z,97324.72
2023-01-28T15:05:28.967Z,97403.56
2023-01-28T15:07:57.627Z,97410.91
2023-01-28T15:10:29.640Z,97429.88
2023-01-28T15:13:04.653Z,97461.59
2023-01-28T15:15:36.581Z,97425.84
2023-01-28T15:18:12.325Z,97441.47
2023-01-28T15:20:46.227Z,97371.56
2023-01-28T15:23:18.454Z,97420.34
2023-01-28T15:25:46.912Z,97435.19
2023-01-28T15:28:26.973Z,97431.84
2023-01-28T15:30:59.516Z,97442.94
2023-01-28T15:33:28.120Z,97436.66
2023-01-28T15:35:59.811Z,97432.16
2023-01-28T15:38:30.047Z,97427.66
2023-01-28T15:41:01.577Z,97375.53
2023-01-28T15:43:32.498Z,97466.41
2023-01-28T15:46:01.618Z,97467.84
2023-01-28T15:48:32.762Z,97441.63
2023-01-28T15:51:06.930Z,97437.28
2023-01-28T15:53:43.463Z,97451.91
2023-01-28T15:56:14.307Z,97502.78
2023-01-28T15:58:44.164Z,97438.50
2023-01-28T16:01:19.421Z,97456.44
2023-01-28T16:04:01.687Z,97482.91
2023-01-28T16:06:37.718Z,97484.59
2023-01-28T16:09:16.942Z,97471.19
2023-01-28T16:11:45.552Z,97467.03
2023-01-28T16:14:24.459Z,97478.03
2023-01-28T16:16:53.963Z,97450.81
2023-01-28T16:19:38.956Z,97456.50
2023-01-28T16:22:18.002Z,97474.44
2023-01-28T16:24:52.237Z,97481.84
2023-01-28T16:27:24.184Z,97541.47
2023-01-28T16:29:52.392Z,97520.84
2023-01-28T16:32:35.893Z,97512.84
2023-01-28T16:35:05.795Z,97457.09
2023-01-28T16:37:36.146Z,97518.31
2023-01-28T16:40:08.193Z,97424.03
2023-01-28T16:42:36.351Z,97444.31
2023-01-28T16:45:05.723Z,97486.88
2023-01-28T16:47:33.899Z,97495.81
2023-01-28T16:50:02.047Z,97495.53
2023-01-28T16:52:30.267Z,97496.47
2023-01-28T16:54:59.943Z,97425.47
2023-01-28T16:57:28.187Z,97434.81
2023-01-28T16:59:56.343Z,97450.03
2023-01-28T17:02:24.683Z,97495.72
2023-01-28T17:04:52.909Z,97442.22
2023-01-28T17:07:21.127Z,97491.88
2023-01-28T17:09:49.299Z,97481.53
2023-01-28T17:12:18.813Z,97510.81
2023-01-28T17:14:46.949Z,97487.06
2023-01-28T17:17:15.903Z,97493.19
2023-01-28T17:19:44.462Z,97481.53
2023-01-28T17:22:12.672Z,97471.34
2023-01-28T17:24:41.015Z,97419.88
2023-01-28T17:27:10.021Z,97434.38
2023-01-28T17:29:39.849Z,97461.84
2023-01-28T17:32:08.246Z,97496.75
2023-01-28T17:34:36.469Z,97485.97
2023-01-28T17:37:04.783Z,97458.91
2023-01-28T17:39:32.984Z,97477.13
2023-01-28T17:42:01.144Z,97364.31
2023-01-28T17:44:29.731Z,97550.66
2023-01-28T17:46:59.244Z,97475.94
2023-01-28T17:49:27.439Z,97510.47
2023-01-28T17:51:55.615Z,97485.00
2023-01-28T17:54:25.774Z,97515.34
2023-01-28T17:56:54.016Z,97458.28
2023-01-28T17:59:24.854Z,97525.53
2023-01-28T18:01:54.600Z,97507.34
2023-01-28T18:04:25.321Z,97540.59
2023-01-28T18:06:53.535Z,97474.56
2023-01-28T18:09:21.991Z,97508.94
2023-01-28T18:11:50.298Z,97532.34
2023-01-28T18:14:18.517Z,97536.31
2023-01-28T18:16:46.703Z,97519.75
2023-01-28T18:19:14.877Z,97496.47
2023-01-28T18:21:52.997Z,97509.63
2023-01-28T18:24:23.479Z,97463.78
2023-01-28T18:26:52.042Z,97486.56
2023-01-28T18:29:23.873Z,97537.72
2023-01-28T18:31:54.222Z,97507.25
2023-01-28T18:34:23.643Z,97521.72
2023-01-28T18:36:53.708Z,97530.53
2023-01-28T18:39:23.276Z,97514.00
2023-01-28T18:41:54.831Z,97536.16
2023-01-28T18:44:24.214Z,97590.63
2023-01-28T18:46:53.357Z,97572.53
2023-01-28T18:49:21.613Z,97538.59
2023-01-28T18:51:49.823Z,97554.88
2023-01-28T18:54:20.401Z,97529.25
2023-01-28T18:56:50.507Z,97565.66
2023-01-28T18:59:18.785Z,97544.34
2023-01-28T19:01:47.900Z,97561.53
2023-01-28T19:04:16.697Z,97460.75
2023-01-28T19:07:12.158Z,97569.91
2023-01-28T19:09:41.689Z,97566.50
2023-01-28T19:12:09.924Z,97553.50
2023-01-28T19:14:38.084Z,97565.94
2023-01-28T19:17:06.604Z,97564.94
2023-01-28T19:19:34.785Z,97562.53
2023-01-28T19:22:02.988Z,97542.97
2023-01-28T19:24:31.229Z,97567.13
2023-01-28T19:27:00.753Z,97588.38
2023-01-28T19:29:31.185Z,97563.66
2023-01-28T19:31:59.893Z,97534.59
2023-01-28T19:34:28.364Z,97553.72
2023-01-28T19:36:56.514Z,97618.50
2023-01-28T19:39:24.749Z,97561.69
2023-01-28T19:41:52.932Z,97547.97
2023-01-28T19:44:22.477Z,97566.28
2023-01-28T19:46:50.680Z,97563.97
2023-01-28T19:49:19.036Z,97560.16
2023-01-28T19:51:47.199Z,97600.53
2023-01-28T19:54:15.439Z,97572.84
2023-01-28T19:56:43.652Z,97574.13
2023-01-28T19:59:11.835Z,97553.78
2023-01-28T20:01:42.306Z,97580.97
2023-01-28T20:04:10.517Z,97581.13
2023-01-28T20:06:39.010Z,97490.78
2023-01-28T20:09:10.032Z,97521.59
2023-01-28T20:11:38.218Z,97562.19
2023-01-28T20:14:06.409Z,97546.19
2023-01-28T20:16:36.112Z,97587.25
2023-01-28T20:19:08.154Z,97578.88
2023-01-28T20:21:37.333Z,97555.75
2023-01-28T20:24:06.582Z,97567.00
2023-01-28T20:26:37.813Z,97560.03
2023-01-28T20:29:08.720Z,97583.75
2023-01-28T20:31:38.338Z,97664.44
2023-01-28T20:34:08.541Z,97654.69
2023-01-28T20:36:36.712Z,97631.09
2023-01-28T20:39:05.054Z,97612.91
2023-01-28T20:41:33.234Z,97673.47
2023-01-28T20:44:01.447Z,97564.31
2023-01-28T20:46:31.870Z,97608.38
2023-01-28T20:49:02.992Z,97684.69
2023-01-28T20:51:35.704Z,97490.63
2023-01-28T20:54:04.513Z,97604.78
2023-01-28T20:56:33.027Z,97626.09
2023-01-28T20:59:04.361Z,97638.94
2023-01-28T21:01:35.621Z,97647.06
2023-01-28T21:04:10.881Z,97654.63
2023-01-28T21:06:40.892Z,97655.38
2023-01-28T21:09:09.671Z,97619.50
2023-01-28T21:11:38.266Z,97651.06
2023-01-28T21:14:06.456Z,97596.78
2023-01-28T21:16:34.661Z,97671.28
2023-01-28T21:19:02.855Z,97624.16
2023-01-28T21:21:31.049Z,97654.44
2023-01-28T21:24:01.980Z,97657.06
2023-01-28T21:26:30.500Z,97598.59
2023-01-28T21:28:58.761Z,97637.97
2023-01-28T21:31:28.132Z,97631.13
2023-01-28T21:33:58.594Z,97620.50
2023-01-28T21:36:27.723Z,97635.78
2023-01-28T21:38:58.316Z,97585.56
2023-01-28T21:41:28.727Z,97587.25
2023-01-28T21:43:58.355Z,97609.97
2023-01-28T21:46:28.831Z,97642.94
2023-01-28T21:48:59.133Z,97611.84
2023-01-28T21:51:39.441Z,97613.59
2023-01-28T21:54:11.154Z,97628.28
2023-01-28T21:56:40.776Z,97669.13
2023-01-28T21:59:29.627Z,97612.16
2023-01-28T22:01:59.771Z,97565.88
2023-01-28T22:04:30.852Z,97631.44
2023-01-28T22:06:59.823Z,97602.75
2023-01-28T22:09:28.827Z,97654.03
2023-01-28T22:11:58.412Z,97650.88
2023-01-28T22:14:27.050Z,97606.34
2023-01-28T22:16:55.219Z,97636.47
2023-01-28T22:19:23.598Z,97646.28
2023-01-28T22:21:51.851Z,97599.03
2023-01-28T22:24:22.429Z,97608.09
2023-01-28T22:26:51.016Z,97697.81
2023-01-28T22:29:22.433Z,97609.75
2023-01-28T22:31:52.572Z,97598.94
2023-01-28T22:34:22.588Z,97661.69
2023-01-28T22:36:51.846Z,97683.28
2023-01-28T22:39:20.298Z,97591.75
2023-01-28T22:41:48.683Z,97626.28
2023-01-28T22:44:16.971Z,97635.47
2023-01-28T22:46:47.161Z,97636.41
2023-01-28T22:49:15.753Z,97650.91
2023-01-28T22:51:44.144Z,97622.97
2023-01-28T22:54:14.737Z,97617.16
2023-01-28T22:56:43.179Z,97651.75
2023-01-28T22:59:12.437Z,97670.44
2023-01-28T23:01:41.064Z,97652.94
2023-01-28T23:04:19.197Z,97639.63
2023-01-28T23:06:48.191Z,97594.13
2023-01-28T23:09:16.402Z,97605.75
2023-01-28T23:11:44.573Z,97625.88
2023-01-28T23:14:30.263Z,97632.63
2023-01-28T23:17:15.835Z,97619.56
2023-01-28T23:20:03.130Z,97630.41
2023-01-28T23:22:51.138Z,97603.25
2023-01-28T23:25:20.522Z,97627.63
2023-01-28T23:27:48.759Z,97611.75
2023-01-28T23:30:18.083Z,97640.13
2023-01-28T23:32:49.854Z,97677.03
2023-01-28T23:35:20.572Z,97650.19
2023-01-28T23:37:49.585Z,97652.72
2023-01-28T23:40:18.675Z,97603.50
2023-01-28T23:42:50.374Z,97587.38
2023-01-28T23:45:19.085Z,97486.09
2023-01-28T23:47:48.707Z,97640.06
2023-01-28T23:50:19.577Z,97613.44
2023-01-28T23:52:47.807Z,97607.63
2023-01-28T23:55:16.420Z,97772.13
2023-01-28T23:57:44.640Z,97594.97
